Time;durP1;ratioP1;P1;durP2;ratioP2;P2;SDS_P1;SDS_P2;PMS_P1;PMS_P2;Temp;Humidity;BMP_temperature;BMP_pressure;BME280_temperature;BME280_humidity;BME280_pressure;Samples;Min_cycle;Max_cycle;Signal;HPM_P1;HPM_P2
2022/08/20 00:01:55;;;;;;;;;;;;;;;24.52;70.95;96604.45;611333;232;65259;-68
2022/08/20 00:04:23;;;;;;;;;;;;;;;24.52;70.66;96605.23;611778;232;68501;-68
2022/08/20 00:06:50;;;;;;;;;;;;;;;24.53;70.75;96603.37;611921;232;66515;-68
2022/08/20 00:09:18;;;;;;;;;;;;;;;24.52;70.78;96605.23;611968;232;65197;-68
2022/08/20 00:11:46;;;;;;;;;;;;;;;24.52;70.76;96599.08;611902;232;65821;-68
2022/08/20 00:14:13;;;;;;;;;;;;;;;24.52;70.67;96599.08;611894;232;68031;-68
2022/08/20 00:16:41;;;;;;;;;;;;;;;24.52;70.87;96605.23;611902;232;62875;-68
2022/08/20 00:19:09;;;;;;;;;;;;;;;24.53;70.79;96601.47;611928;232;68461;-68
2022/08/20 00:21:37;;;;;;;;;;;;;;;24.52;70.68;96597.17;611926;232;66447;-68
2022/08/20 00:24:05;;;;;;;;;;;;;;;24.51;70.81;96590.23;611912;232;65278;-68
2022/08/20 00:26:33;;;;;;;;;;;;;;;24.52;70.84;96589.12;611867;232;66373;-68
2022/08/20 00:29:01;;;;;;;;;;;;;;;24.52;70.70;96593.70;611895;232;68863;-68
2022/08/20 00:31:28;;;;;;;;;;;;;;;24.53;70.65;96595.31;611861;232;62733;-68
2022/08/20 00:33:56;;;;;;;;;;;;;;;24.52;70.64;96585.64;611922;232;68903;-68
2022/08/20 00:36:23;;;;;;;;;;;;;;;24.52;70.66;96589.12;611901;232;68536;-68
2022/08/20 00:38:51;;;;;;;;;;;;;;;24.52;70.77;96593.70;611952;232;64868;-68
2022/08/20 00:41:20;;;;;;;;;;;;;;;24.51;70.78;96592.91;611941;232;66464;-65
2022/08/20 00:43:49;;;;;;;;;;;;;;;24.51;70.69;96587.54;611940;232;69491;-65
2022/08/20 00:46:21;;;;;;;;;;;;;;;24.51;70.72;96590.23;611999;232;62817;-65
2022/08/20 00:48:49;;;;;;;;;;;;;;;24.51;70.70;96582.17;611980;232;68655;-65
2022/08/20 00:51:31;;;;;;;;;;;;;;;24.51;70.92;96584.85;611889;232;66456;-65
2022/08/20 00:53:59;;;;;;;;;;;;;;;24.51;70.86;96576.80;611919;232;65025;-65
2022/08/20 00:56:27;;;;;;;;;;;;;;;24.51;70.67;96586.75;611843;232;68663;-65
2022/08/20 00:58:56;;;;;;;;;;;;;;;24.51;70.72;96584.06;611926;232;68549;-65
2022/08/20 01:01:23;;;;;;;;;;;;;;;24.50;70.94;96583.28;612013;232;65142;-65
2022/08/20 01:03:55;;;;;;;;;;;;;;;24.51;70.86;96584.06;611539;232;68737;-65
2022/08/20 01:06:20;;;;;;;;;;;;;;;24.51;70.81;96578.69;611268;231;68635;-65
2022/08/20 01:08:48;;;;;;;;;;;;;;;24.50;70.77;96575.22;611339;232;64935;-65
2022/08/20 01:11:16;;;;;;;;;;;;;;;24.50;70.64;96575.22;611397;232;66423;-65
2022/08/20 01:13:45;;;;;;;;;;;;;;;24.50;70.50;96572.53;611405;232;68060;-65
2022/08/20 01:16:15;;;;;;;;;;;;;;;24.49;70.49;96573.61;611435;232;65096;-65
2022/08/20 01:18:43;;;;;;;;;;;;;;;24.50;70.57;96574.40;611234;231;67147;-65
2022/08/20 01:21:10;;;;;;;;;;;;;;;24.50;70.56;96567.16;611357;232;66466;-65
2022/08/20 01:23:56;;;;;;;;;;;;;;;24.49;70.46;96570.92;611371;232;65208;-65
2022/08/20 01:26:28;;;;;;;;;;;;;;;24.49;70.44;96568.23;611383;232;68723;-65
2022/08/20 01:28:57;;;;;;;;;;;;;;;24.50;70.58;96563.66;611372;232;66989;-65
2022/08/20 01:31:26;;;;;;;;;;;;;;;24.49;70.61;96562.87;611377;232;63015;-65
2022/08/20 01:33:55;;;;;;;;;;;;;;;24.48;70.55;96555.92;611350;232;68577;-65
2022/08/20 01:36:24;;;;;;;;;;;;;;;24.49;70.48;96559.39;611351;232;66136;-65
2022/08/20 01:38:52;;;;;;;;;;;;;;;24.49;70.53;96562.87;611395;232;62601;-65
2022/08/20 01:41:34;;;;;;;;;;;;;;;24.48;70.49;96563.19;611363;232;68490;-65
2022/08/20 01:44:02;;;;;;;;;;;;;;;24.49;70.46;96565.55;611359;232;68315;-65
2022/08/20 01:46:31;;;;;;;;;;;;;;;24.48;70.43;96561.30;611351;232;62859;-65
2022/08/20 01:49:00;;;;;;;;;;;;;;;24.49;70.59;96562.08;611346;232;68919;-65
2022/08/20 01:51:29;;;;;;;;;;;;;;;24.48;70.39;96560.50;611312;232;66411;-65
2022/08/20 01:53:58;;;;;;;;;;;;;;;24.48;70.42;96555.13;611305;232;65071;-65
2022/08/20 01:56:27;;;;;;;;;;;;;;;24.48;70.34;96552.44;611364;232;68532;-65
2022/08/20 01:58:56;;;;;;;;;;;;;;;24.48;70.25;96552.44;611395;232;68340;-65
2022/08/20 02:01:28;;;;;;;;;;;;;;;24.48;70.34;96549.76;611350;232;63778;-65
2022/08/20 02:03:56;;;;;;;;;;;;;;;24.48;70.36;96544.39;611338;232;66188;-65
2022/08/20 02:06:25;;;;;;;;;;;;;;;24.47;70.55;96542.78;611307;232;66270;-65
2022/08/20 02:08:54;;;;;;;;;;;;;;;24.47;70.50;96543.59;611341;232;65055;-65
2022/08/20 02:11:22;;;;;;;;;;;;;;;24.47;70.58;96543.59;611260;231;68407;-65
2022/08/20 02:13:51;;;;;;;;;;;;;;;24.47;70.47;96538.23;611328;232;68484;-65
2022/08/20 02:16:23;;;;;;;;;;;;;;;24.47;70.60;96537.41;611322;232;64969;-65
2022/08/20 02:18:53;;;;;;;;;;;;;;;24.46;70.54;96533.94;611321;232;68146;-65
2022/08/20 02:21:21;;;;;;;;;;;;;;;24.46;70.67;96536.62;611349;232;66269;-65
2022/08/20 02:23:49;;;;;;;;;;;;;;;24.46;70.82;96531.25;611370;232;65035;-65
2022/08/20 02:26:18;;;;;;;;;;;;;;;24.47;70.75;96532.03;611338;232;68320;-65
2022/08/20 02:28:49;;;;;;;;;;;;;;;24.46;70.79;96525.09;611361;232;66166;-65
2022/08/20 02:31:18;;;;;;;;;;;;;;;24.46;71.14;96528.56;611288;232;65077;-64
2022/08/20 02:33:45;;;;;;;;;;;;;;;24.46;70.75;96530.45;611343;232;68277;-64
2022/08/20 02:36:14;;;;;;;;;;;;;;;24.45;70.63;96524.30;611312;232;68660;-64
2022/08/20 02:38:41;;;;;;;;;;;;;;;24.46;70.75;96531.25;611406;232;62640;-64
2022/08/20 02:41:09;;;;;;;;;;;;;;;24.46;70.71;96522.41;611327;232;68344;-64
2022/08/20 02:43:36;;;;;;;;;;;;;;;24.46;70.82;96527.77;611337;232;68323;-64
2022/08/20 02:46:05;;;;;;;;;;;;;;;24.46;71.23;96528.56;611313;232;64932;-64
2022/08/20 02:48:37;;;;;;;;;;;;;;;24.46;70.71;96519.72;611321;232;68409;-64
2022/08/20 02:51:05;;;;;;;;;;;;;;;24.46;70.90;96517.03;611386;232;68671;-64
2022/08/20 02:53:34;;;;;;;;;;;;;;;24.45;71.25;96516.24;611344;232;64891;-64
2022/08/20 02:56:02;;;;;;;;;;;;;;;24.46;70.94;96525.87;611319;232;65613;-64
2022/08/20 02:58:29;;;;;;;;;;;;;;;24.45;70.86;96524.30;611307;232;68734;-64
2022/08/20 03:00:57;;;;;;;;;;;;;;;24.46;70.92;96522.41;611272;232;64946;-64
2022/08/20 03:03:25;;;;;;;;;;;;;;;24.45;71.29;96518.92;611321;232;66274;-64
2022/08/20 03:05:54;;;;;;;;;;;;;;;24.45;71.37;96516.24;611324;232;66594;-64
2022/08/20 03:08:22;;;;;;;;;;;;;;;24.45;71.33;96510.08;611340;232;65181;-64
2022/08/20 03:10:50;;;;;;;;;;;;;;;24.45;71.60;96518.14;611299;232;69269;-64
2022/08/20 03:13:18;;;;;;;;;;;;;;;24.44;71.60;96522.69;611310;232;68297;-64
2022/08/20 03:15:47;;;;;;;;;;;;;;;24.44;71.59;96522.69;611307;232;62750;-64
2022/08/20 03:18:17;;;;;;;;;;;;;;;24.44;71.89;96529.96;611238;231;68448;-64
2022/08/20 03:20:45;;;;;;;;;;;;;;;24.43;71.57;96518.41;611310;232;66204;-64
2022/08/20 03:23:13;;;;;;;;;;;;;;;24.43;71.47;96515.72;611331;232;63964;-64
2022/08/20 03:25:41;;;;;;;;;;;;;;;24.44;72.48;96520.01;611295;232;65841;-64
2022/08/20 03:28:09;;;;;;;;;;;;;;;24.43;72.56;96521.09;611301;232;68488;-64
2022/08/20 03:30:37;;;;;;;;;;;;;;;24.43;72.72;96523.77;611369;232;65203;-64
2022/08/20 03:33:05;;;;;;;;;;;;;;;24.42;72.89;96524.88;611319;232;68418;-64
2022/08/20 03:35:33;;;;;;;;;;;;;;;24.41;72.90;96523.28;611298;232;68257;-64
2022/08/20 03:38:01;;;;;;;;;;;;;;;24.41;72.75;96517.91;611302;232;62955;-64
2022/08/20 03:40:30;;;;;;;;;;;;;;;24.41;72.86;96512.53;611327;232;66198;-64
2022/08/20 03:42:58;;;;;;;;;;;;;;;24.41;73.08;96520.59;611363;232;68268;-67
2022/08/20 03:45:26;;;;;;;;;;;;;;;24.40;72.82;96521.70;611343;232;64878;-67
2022/08/20 03:47:54;;;;;;;;;;;;;;;24.41;72.78;96517.12;611337;232;66369;-67
2022/08/20 03:50:23;;;;;;;;;;;;;;;24.41;72.83;96517.12;611284;232;68975;-67
2022/08/20 03:52:51;;;;;;;;;;;;;;;24.40;72.95;96519.02;611274;232;62753;-67
2022/08/20 03:55:20;;;;;;;;;;;;;;;24.40;72.84;96521.70;611372;232;68228;-67
2022/08/20 03:57:49;;;;;;;;;;;;;;;24.40;72.96;96529.76;611290;232;66181;-67
2022/08/20 04:00:19;;;;;;;;;;;;;;;24.41;72.74;96530.55;611309;232;62681;-67
2022/08/20 04:02:47;;;;;;;;;;;;;;;24.40;73.11;96537.81;611340;232;66935;-67
2022/08/20 04:05:15;;;;;;;;;;;;;;;24.41;73.12;96533.23;611881;232;65934;-67
2022/08/20 04:07:43;;;;;;;;;;;;;;;24.40;73.27;96535.13;611939;232;66146;-67
2022/08/20 04:10:12;;;;;;;;;;;;;;;24.39;73.27;96536.23;611971;232;65633;-67
2022/08/20 04:12:39;;;;;;;;;;;;;;;24.39;73.11;96530.87;611923;232;65926;-67
2022/08/20 04:15:09;;;;;;;;;;;;;;;24.39;73.29;96528.18;611910;232;64895;-67
2022/08/20 04:17:37;;;;;;;;;;;;;;;24.39;72.87;96520.13;611889;231;68493;-67
2022/08/20 04:20:08;;;;;;;;;;;;;;;24.39;72.99;96517.44;611954;232;68131;-67
2022/08/20 04:22:36;;;;;;;;;;;;;;;24.38;73.08;96513.94;612005;232;65089;-67
2022/08/20 04:25:05;;;;;;;;;;;;;;;24.39;73.11;96514.75;611934;232;68956;-68
2022/08/20 04:27:32;;;;;;;;;;;;;;;24.39;73.13;96517.44;611941;232;68393;-67
2022/08/20 04:30:02;;;;;;;;;;;;;;;24.38;73.08;96521.20;611890;232;63793;-67
2022/08/20 04:32:30;;;;;;;;;;;;;;;24.38;73.19;96519.30;611917;232;67545;-67
2022/08/20 04:34:59;;;;;;;;;;;;;;;24.38;73.23;96518.52;611797;232;66139;-67
2022/08/20 04:37:27;;;;;;;;;;;;;;;24.39;73.30;96520.13;611925;232;64928;-68
2022/08/20 04:42:40;;;;;;;;;;;;;;;24.38;73.30;96519.30;611636;230;68467;-66
2022/08/20 04:45:07;;;;;;;;;;;;;;;24.38;72.96;96513.94;600972;232;64657;-66
2022/08/20 04:47:35;;;;;;;;;;;;;;;24.37;73.43;96517.73;601847;232;69987;-66
2022/08/20 04:50:03;;;;;;;;;;;;;;;24.36;73.39;96513.47;611868;232;68442;-66
2022/08/20 04:52:31;;;;;;;;;;;;;;;24.35;73.63;96508.39;611836;232;64740;-64
2022/08/20 04:54:59;;;;;;;;;;;;;;;24.35;73.67;96503.02;611856;232;66160;-63
2022/08/20 04:57:26;;;;;;;;;;;;;;;24.35;73.62;96508.39;611908;232;65911;-63
2022/08/20 04:59:54;;;;;;;;;;;;;;;24.33;73.54;96497.94;611887;232;63049;-64
2022/08/20 05:02:21;;;;;;;;;;;;;;;24.34;73.37;96506.81;611952;232;68327;-64
2022/08/20 05:04:49;;;;;;;;;;;;;;;24.34;73.25;96506.81;611258;232;68775;-64
2022/08/20 05:07:21;;;;;;;;;;;;;;;24.33;73.20;96510.58;611327;232;66203;-64
2022/08/20 05:09:49;;;;;;;;;;;;;;;24.34;73.20;96512.19;611234;232;68563;-64
2022/08/20 05:12:16;;;;;;;;;;;;;;;24.34;73.25;96517.55;611292;232;68545;-64
2022/08/20 05:14:44;;;;;;;;;;;;;;;24.33;73.31;96516.73;611305;232;64965;-64
2022/08/20 05:17:13;;;;;;;;;;;;;;;24.33;73.20;96516.73;611350;232;68346;-64
2022/08/20 05:19:41;;;;;;;;;;;;;;;24.33;73.19;96516.73;611250;232;66496;-64
2022/08/20 05:22:09;;;;;;;;;;;;;;;24.32;73.19;96509.79;611278;232;65064;-64
2022/08/20 05:24:36;;;;;;;;;;;;;;;24.33;73.11;96510.58;611266;232;68489;-64
2022/08/20 05:27:04;;;;;;;;;;;;;;;24.32;73.20;96515.16;611292;232;68481;-64
2022/08/20 05:29:31;;;;;;;;;;;;;;;24.32;73.22;96503.63;611352;232;64853;-64
2022/08/20 05:31:59;;;;;;;;;;;;;;;24.33;73.23;96510.58;611310;232;68636;-64
2022/08/20 05:34:27;;;;;;;;;;;;;;;24.32;73.35;96503.63;611309;232;68627;-64
2022/08/20 05:36:54;;;;;;;;;;;;;;;24.32;73.27;96514.38;611276;232;65071;-64
2022/08/20 05:39:22;;;;;;;;;;;;;;;24.32;73.34;96504.42;611287;232;68741;-64
2022/08/20 05:41:50;;;;;;;;;;;;;;;24.32;73.36;96504.42;611312;232;66575;-63
2022/08/20 05:44:18;;;;;;;;;;;;;;;24.32;73.42;96504.42;611338;232;62783;-63
2022/08/20 05:46:47;;;;;;;;;;;;;;;24.31;73.31;96494.78;611310;232;68911;-63
2022/08/20 05:49:15;;;;;;;;;;;;;;;24.32;73.11;96493.67;611264;232;68636;-63
2022/08/20 05:51:43;;;;;;;;;;;;;;;24.33;72.97;96497.94;611275;232;62935;-64
2022/08/20 05:54:12;;;;;;;;;;;;;;;24.33;72.88;96489.09;611279;232;68967;-63
2022/08/20 05:56:39;;;;;;;;;;;;;;;24.33;72.84;96489.09;611279;232;68560;-63
2022/08/20 05:59:11;;;;;;;;;;;;;;;24.33;72.85;96483.72;611215;231;63011;-64
2022/08/20 06:01:39;;;;;;;;;;;;;;;24.33;72.73;96475.67;611291;232;66711;-64
2022/08/20 06:04:23;;;;;;;;;;;;;;;24.34;72.82;96488.02;611284;232;68352;-64
2022/08/20 06:06:52;;;;;;;;;;;;;;;24.33;72.81;96478.35;611316;232;62839;-64
2022/08/20 06:09:21;;;;;;;;;;;;;;;24.33;72.82;96481.83;611321;232;68950;-65
2022/08/20 06:11:48;;;;;;;;;;;;;;;24.33;72.68;96478.35;611331;232;68221;-64
2022/08/20 06:14:17;;;;;;;;;;;;;;;24.32;71.25;96477.56;611316;232;64883;-64
2022/08/20 06:16:45;;;;;;;;;;;;;;;24.33;68.35;96478.35;611283;232;66684;-64
2022/08/20 06:19:13;;;;;;;;;;;;;;;24.35;66.57;96485.01;611284;232;69945;-64
2022/08/20 06:21:40;;;;;;;;;;;;;;;24.38;68.12;96476.34;611347;232;65153;-64
2022/08/20 06:24:08;;;;;;;;;;;;;;;24.40;68.75;96484.10;611310;232;68766;-64
2022/08/20 06:26:36;;;;;;;;;;;;;;;24.41;70.52;96487.58;611314;232;68498;-64
2022/08/20 06:29:05;;;;;;;;;;;;;;;24.42;71.05;96478.41;611284;232;65214;-64
2022/08/20 06:31:33;;;;;;;;;;;;;;;24.41;71.32;96482.98;611312;232;68879;-64
2022/08/20 06:34:01;;;;;;;;;;;;;;;24.41;70.91;96472.25;611308;232;66148;-64
2022/08/20 06:36:29;;;;;;;;;;;;;;;24.42;70.87;96473.85;611370;232;62661;-64
2022/08/20 06:38:57;;;;;;;;;;;;;;;24.42;70.94;96471.17;611321;232;66176;-64
2022/08/20 06:41:24;;;;;;;;;;;;;;;24.42;70.98;96471.17;611251;232;68620;-64
2022/08/20 06:43:52;;;;;;;;;;;;;;;24.44;70.98;96468.19;611294;232;64868;-64
2022/08/20 06:46:22;;;;;;;;;;;;;;;24.44;71.28;96463.61;611295;232;69276;-64
2022/08/20 06:48:50;;;;;;;;;;;;;;;24.45;71.05;96462.52;611350;232;68704;-64
2022/08/20 06:51:19;;;;;;;;;;;;;;;24.46;71.58;96466.00;611309;232;65052;-64
2022/08/20 06:53:46;;;;;;;;;;;;;;;24.45;71.74;96467.89;611236;232;66447;-64
2022/08/20 06:56:14;;;;;;;;;;;;;;;24.46;71.51;96456.04;611270;232;68882;-64
2022/08/20 06:58:42;;;;;;;;;;;;;;;24.46;72.04;96461.41;611310;232;65202;-64
2022/08/20 07:01:12;;;;;;;;;;;;;;;24.46;71.69;96461.41;611337;232;66505;-64
2022/08/20 07:03:40;;;;;;;;;;;;;;;24.48;71.50;96455.75;611270;231;68761;-64
2022/08/20 07:06:08;;;;;;;;;;;;;;;24.47;71.93;96454.96;611294;232;62775;-64
2022/08/20 07:08:36;;;;;;;;;;;;;;;24.48;71.80;96456.53;611250;232;68827;-64
2022/08/20 07:11:03;;;;;;;;;;;;;;;24.48;71.79;96453.84;611312;232;68720;-64
2022/08/20 07:13:31;;;;;;;;;;;;;;;24.48;71.89;96453.06;611322;232;65115;-64
2022/08/20 07:15:59;;;;;;;;;;;;;;;24.49;71.82;96451.95;611313;232;66448;-64
2022/08/20 07:18:26;;;;;;;;;;;;;;;24.49;71.88;96449.27;611302;232;66627;-64
2022/08/20 07:20:55;;;;;;;;;;;;;;;24.50;72.10;96440.91;611213;232;65231;-64
2022/08/20 07:23:24;;;;;;;;;;;;;;;24.51;72.51;96447.86;611214;232;66733;-64
2022/08/20 07:25:54;;;;;;;;;;;;;;;24.52;72.54;96448.65;611346;232;68355;-64
2022/08/20 07:28:23;;;;;;;;;;;;;;;24.52;72.53;96440.59;611348;232;64919;-64
2022/08/20 07:33:39;;;;;;;;;;;;;;;24.53;72.54;96442.19;611241;232;69329;-64
2022/08/20 07:36:07;;;;;;;;;;;;;;;24.53;72.12;96440.30;611292;232;62609;-64
2022/08/20 07:38:36;;;;;;;;;;;;;;;24.53;71.60;96434.92;611299;232;68851;-67
2022/08/20 07:41:05;;;;;;;;;;;;;;;24.53;71.39;96440.30;611344;232;66758;-67
2022/08/20 07:43:33;;;;;;;;;;;;;;;24.55;71.22;96435.41;611283;232;62686;-67
2022/08/20 07:46:08;;;;;;;;;;;;;;;24.55;71.10;96438.10;611204;232;66348;-67
2022/08/20 07:48:31;;;;;;;;;;;;;;;24.57;70.98;96433.19;611088;231;68615;-67
2022/08/20 07:51:03;;;;;;;;;;;;;;;24.57;71.24;96435.88;611229;232;65006;-67
2022/08/20 07:53:37;;;;;;;;;;;;;;;24.58;71.33;96436.66;611279;232;66142;-67
2022/08/20 07:56:02;;;;;;;;;;;;;;;24.59;71.11;96435.58;611144;231;66669;-68
2022/08/20 07:58:29;;;;;;;;;;;;;;;24.58;71.08;96437.48;611213;232;64919;-68
2022/08/20 08:00:57;;;;;;;;;;;;;;;24.59;71.07;96432.89;611287;232;69034;-67
2022/08/20 08:03:26;;;;;;;;;;;;;;;24.58;70.89;96429.42;611267;232;68572;-67
2022/08/20 08:05:54;;;;;;;;;;;;;;;24.59;70.96;96427.52;611297;232;62829;-67
2022/08/20 08:08:23;;;;;;;;;;;;;;;24.60;71.04;96426.41;611341;232;68843;-67
2022/08/20 08:10:52;;;;;;;;;;;;;;;24.61;71.30;96424.51;611257;232;68876;-68
2022/08/20 08:13:25;;;;;;;;;;;;;;;24.61;71.10;96424.51;611138;232;42390;-67
2022/08/20 08:15:51;;;;;;;;;;;;;;;24.59;70.99;96417.56;611290;230;66139;-67
2022/08/20 08:18:20;;;;;;;;;;;;;;;24.61;71.49;96417.27;611292;232;66205;-67
2022/08/20 08:20:52;;;;;;;;;;;;;;;24.62;71.25;96415.38;611086;231;62791;-68
2022/08/20 08:23:19;;;;;;;;;;;;;;;24.62;71.59;96416.16;611288;231;70877;-67
2022/08/20 08:25:46;;;;;;;;;;;;;;;24.61;71.32;96421.83;611292;232;68499;-67
2022/08/20 08:28:14;;;;;;;;;;;;;;;24.62;71.50;96412.69;611315;232;63905;-67
2022/08/20 08:30:42;;;;;;;;;;;;;;;24.61;71.37;96409.21;611299;232;68473;-68
2022/08/20 08:33:28;;;;;;;;;;;;;;;24.63;71.50;96408.88;611311;232;66401;-64
2022/08/20 08:35:56;;;;;;;;;;;;;;;24.63;71.81;96400.83;611325;232;65188;-64
2022/08/20 08:38:24;;;;;;;;;;;;;;;24.63;71.63;96392.77;611226;232;67975;-65
2022/08/20 08:40:55;;;;;;;;;;;;;;;24.62;71.97;96396.56;611276;232;68656;-64
2022/08/20 08:43:24;;;;;;;;;;;;;;;24.62;71.48;96389.30;611282;232;62956;-64
2022/08/20 08:46:00;;;;;;;;;;;;;;;24.62;71.54;96389.30;611270;232;68646;-64
2022/08/20 08:48:30;;;;;;;;;;;;;;;24.63;71.67;96382.02;611032;231;66751;-64
2022/08/20 08:50:59;;;;;;;;;;;;;;;24.64;71.63;96380.94;611329;232;65068;-64
2022/08/20 08:53:27;;;;;;;;;;;;;;;24.63;71.69;96373.95;611235;232;66526;-64
2022/08/20 08:55:55;;;;;;;;;;;;;;;24.64;71.74;96376.34;611200;232;68514;-64
2022/08/20 08:58:22;;;;;;;;;;;;;;;24.64;71.63;96375.56;611297;232;62700;-64
2022/08/20 09:00:50;;;;;;;;;;;;;;;24.64;71.50;96372.87;611264;232;68651;-64
2022/08/20 09:03:20;;;;;;;;;;;;;;;24.64;71.61;96370.98;611323;232;68881;-65
2022/08/20 09:05:52;;;;;;;;;;;;;;;24.65;71.69;96367.17;611337;232;62939;-64
2022/08/20 09:08:22;;;;;;;;;;;;;;;24.65;71.70;96369.08;611133;232;68373;-64
2022/08/20 09:10:50;;;;;;;;;;;;;;;24.65;71.68;96364.48;611315;232;68663;-64
2022/08/20 09:13:18;;;;;;;;;;;;;;;24.65;71.44;96361.02;611282;232;64888;-64
2022/08/20 09:15:45;;;;;;;;;;;;;;;24.65;71.58;96372.55;611265;232;68727;-64
2022/08/20 09:18:13;;;;;;;;;;;;;;;24.66;71.40;96373.34;611379;232;66324;-64
2022/08/20 09:20:40;;;;;;;;;;;;;;;24.66;71.66;96366.06;611313;232;62728;-64
2022/08/20 09:23:08;;;;;;;;;;;;;;;24.67;71.60;96374.94;611323;232;68938;-64
2022/08/20 09:25:35;;;;;;;;;;;;;;;24.66;71.44;96368.75;611324;232;68810;-64
2022/08/20 09:28:03;;;;;;;;;;;;;;;24.67;71.44;96370.35;611284;232;62679;-64
2022/08/20 09:30:31;;;;;;;;;;;;;;;24.67;71.29;96375.73;611364;232;68860;-64
2022/08/20 09:32:59;;;;;;;;;;;;;;;24.67;71.37;96375.73;611346;232;68532;-64
2022/08/20 09:35:27;;;;;;;;;;;;;;;24.67;71.50;96378.41;611335;232;62431;-64
2022/08/20 09:37:55;;;;;;;;;;;;;;;24.67;71.58;96370.35;611266;232;66100;-64
2022/08/20 09:40:22;;;;;;;;;;;;;;;24.67;71.55;96369.56;611306;232;68869;-64
2022/08/20 09:42:50;;;;;;;;;;;;;;;24.68;71.49;96365.77;611326;232;65878;-64
2022/08/20 09:45:18;;;;;;;;;;;;;;;24.68;71.42;96365.77;611313;232;68607;-64
2022/08/20 09:47:46;;;;;;;;;;;;;;;24.68;71.41;96355.80;611317;232;66633;-64
2022/08/20 09:50:14;;;;;;;;;;;;;;;24.69;71.52;96362.78;611265;232;65216;-64
2022/08/20 09:52:43;;;;;;;;;;;;;;;24.69;71.35;96353.91;611265;232;68653;-64
2022/08/20 09:55:15;;;;;;;;;;;;;;;24.68;71.32;96355.80;611333;232;68310;-64
2022/08/20 09:57:42;;;;;;;;;;;;;;;24.69;71.35;96353.91;611201;231;62679;-64
2022/08/20 10:00:11;;;;;;;;;;;;;;;24.70;71.24;96347.45;611250;229;66462;-64
2022/08/20 10:02:41;;;;;;;;;;;;;;;24.69;71.37;96349.34;611369;232;41210;-64
2022/08/20 10:05:09;;;;;;;;;;;;;;;24.70;71.27;96350.13;611304;232;65071;-64
2022/08/20 10:07:37;;;;;;;;;;;;;;;24.69;71.29;96337.78;611299;232;68842;-64
2022/08/20 10:10:06;;;;;;;;;;;;;;;24.70;71.33;96344.76;611310;232;68523;-64
2022/08/20 10:12:34;;;;;;;;;;;;;;;24.71;71.27;96343.64;611295;232;65081;-64
2022/08/20 10:15:01;;;;;;;;;;;;;;;24.71;71.39;96338.27;611308;232;66440;-64
2022/08/20 10:17:29;;;;;;;;;;;;;;;24.71;71.38;96338.27;611300;232;68594;-67
2022/08/20 10:19:57;;;;;;;;;;;;;;;24.71;71.37;96333.69;611319;232;65221;-67
2022/08/20 10:22:26;;;;;;;;;;;;;;;24.71;71.31;96333.69;611343;232;65974;-67
2022/08/20 10:24:53;;;;;;;;;;;;;;;24.72;71.20;96329.13;611294;232;68451;-67
2022/08/20 10:27:21;;;;;;;;;;;;;;;24.71;71.29;96333.69;611263;232;62652;-67
2022/08/20 10:29:48;;;;;;;;;;;;;;;24.71;70.95;96327.52;611284;232;69020;-67
2022/08/20 10:32:16;;;;;;;;;;;;;;;24.72;71.02;96334.50;611295;232;68632;-67
2022/08/20 10:34:45;;;;;;;;;;;;;;;24.72;71.22;96331.81;611285;232;65058;-67
2022/08/20 10:37:17;;;;;;;;;;;;;;;24.72;71.29;96339.88;611328;232;68613;-67
2022/08/20 10:39:45;;;;;;;;;;;;;;;24.72;71.03;96335.28;611297;232;68611;-67
2022/08/20 10:42:13;;;;;;;;;;;;;;;24.72;71.11;96324.54;611287;232;62921;-67
2022/08/20 10:44:41;;;;;;;;;;;;;;;24.72;71.04;96323.75;611274;232;69708;-67
2022/08/20 10:47:19;;;;;;;;;;;;;;;24.73;70.92;96317.27;611320;232;68400;-67
2022/08/20 10:49:47;;;;;;;;;;;;;;;24.73;70.96;96319.95;611347;232;63658;-67
2022/08/20 10:52:15;;;;;;;;;;;;;;;24.73;70.70;96317.27;611215;232;68641;-67
2022/08/20 10:54:42;;;;;;;;;;;;;;;24.73;70.98;96315.36;611269;232;68747;-67
2022/08/20 10:57:12;;;;;;;;;;;;;;;24.73;70.88;96317.27;611283;232;64883;-67
2022/08/20 10:59:41;;;;;;;;;;;;;;;24.73;70.87;96320.73;611055;229;66546;-67
2022/08/20 11:02:08;;;;;;;;;;;;;;;24.74;70.91;96306.19;611354;232;68505;-67
2022/08/20 11:04:36;;;;;;;;;;;;;;;24.74;70.95;96314.25;611294;232;62803;-67
2022/08/20 11:07:21;;;;;;;;;;;;;;;24.74;70.76;96308.88;611300;232;68722;-64
2022/08/20 11:09:49;;;;;;;;;;;;;;;24.74;70.76;96311.56;611319;232;68582;-64
2022/08/20 11:12:18;;;;;;;;;;;;;;;24.75;70.72;96307.79;611271;232;62688;-64
2022/08/20 11:14:46;;;;;;;;;;;;;;;24.75;70.84;96304.31;611329;232;68736;-64
2022/08/20 11:17:15;;;;;;;;;;;;;;;24.75;70.92;96294.36;611314;232;66603;-64
2022/08/20 11:19:44;;;;;;;;;;;;;;;24.75;70.96;96304.31;611103;231;62679;-64
2022/08/20 11:22:11;;;;;;;;;;;;;;;24.76;70.74;96305.89;611283;232;68914;-64
2022/08/20 11:24:39;;;;;;;;;;;;;;;24.76;71.34;96292.45;611208;232;68563;-64
2022/08/20 11:27:09;;;;;;;;;;;;;;;24.76;70.81;96298.61;611288;232;64978;-64
2022/08/20 11:29:38;;;;;;;;;;;;;;;24.76;70.83;96297.83;611280;232;71681;-64
2022/08/20 11:32:06;;;;;;;;;;;;;;;24.76;70.87;96290.55;611303;232;68814;-64
2022/08/20 11:34:33;;;;;;;;;;;;;;;24.76;70.94;96287.86;611290;232;65068;-64
2022/08/20 11:37:00;;;;;;;;;;;;;;;24.77;70.84;96291.34;611310;232;68360;-64
2022/08/20 11:39:28;;;;;;;;;;;;;;;24.77;70.97;96284.09;611232;232;66409;-66
2022/08/20 11:41:55;;;;;;;;;;;;;;;24.77;70.92;96284.09;611316;232;62634;-66
2022/08/20 11:44:25;;;;;;;;;;;;;;;24.77;70.65;96278.72;611291;232;66654;-66
2022/08/20 11:46:52;;;;;;;;;;;;;;;24.77;70.81;96273.34;611313;232;68977;-66
2022/08/20 11:49:20;;;;;;;;;;;;;;;24.78;70.95;96268.75;611298;232;64863;-66
2022/08/20 11:51:48;;;;;;;;;;;;;;;24.78;70.79;96263.38;611253;232;67978;-66
2022/08/20 11:54:15;;;;;;;;;;;;;;;24.79;70.69;96262.27;611347;232;68517;-64
2022/08/20 11:56:44;;;;;;;;;;;;;;;24.78;70.67;96263.38;611217;232;62680;-64
2022/08/20 11:59:13;;;;;;;;;;;;;;;24.78;70.67;96256.11;611294;232;66526;-64
2022/08/20 12:01:40;;;;;;;;;;;;;;;24.79;70.60;96254.20;611297;232;66364;-64
2022/08/20 12:04:08;;;;;;;;;;;;;;;24.79;70.56;96259.58;611280;232;62755;-63
2022/08/20 12:06:40;;;;;;;;;;;;;;;24.78;70.48;96248.05;611270;232;69000;-63
2022/08/20 12:09:08;;;;;;;;;;;;;;;24.80;70.51;96253.12;611346;232;68642;-63
2022/08/20 12:11:35;;;;;;;;;;;;;;;24.80;70.31;96255.80;611310;232;64989;-64
2022/08/20 12:14:03;;;;;;;;;;;;;;;24.80;70.09;96253.91;611300;232;66322;-63
2022/08/20 12:16:30;;;;;;;;;;;;;;;24.80;70.23;96255.80;611284;232;66491;-64
2022/08/20 12:18:58;;;;;;;;;;;;;;;24.80;70.37;96247.75;611253;232;62762;-64
2022/08/20 12:21:25;;;;;;;;;;;;;;;24.80;70.46;96247.75;611370;232;66444;-63
2022/08/20 12:23:52;;;;;;;;;;;;;;;24.81;70.50;96246.62;611312;232;66755;-64
2022/08/20 12:26:20;;;;;;;;;;;;;;;24.81;70.49;96238.56;611336;232;65366;-64
2022/08/20 12:28:49;;;;;;;;;;;;;;;24.81;70.45;96235.87;611305;232;68568;-64
2022/08/20 12:31:18;;;;;;;;;;;;;;;24.81;70.08;96230.50;611190;231;66463;-64
2022/08/20 12:33:45;;;;;;;;;;;;;;;24.81;70.45;96235.87;611345;232;62780;-63
2022/08/20 12:36:13;;;;;;;;;;;;;;;24.81;70.41;96225.91;611325;232;66154;-63
2022/08/20 12:38:40;;;;;;;;;;;;;;;24.82;70.46;96226.70;611306;232;66195;-64
2022/08/20 12:41:08;;;;;;;;;;;;;;;24.82;70.20;96226.70;611308;232;62840;-64
2022/08/20 12:43:35;;;;;;;;;;;;;;;24.82;70.30;96229.39;611269;231;66323;-64
2022/08/20 12:46:03;;;;;;;;;;;;;;;24.83;70.72;96228.30;611298;232;66476;-64
2022/08/20 12:48:30;;;;;;;;;;;;;;;24.83;70.38;96222.11;611338;232;64845;-64
2022/08/20 12:50:58;;;;;;;;;;;;;;;24.83;70.33;96222.92;611281;232;68512;-64
2022/08/20 12:53:26;;;;;;;;;;;;;;;24.83;70.14;96220.23;611275;232;66466;-64
2022/08/20 12:55:53;;;;;;;;;;;;;;;24.84;70.26;96224.50;611251;232;64840;-64
2022/08/20 12:58:20;;;;;;;;;;;;;;;24.83;70.39;96214.86;611324;232;68847;-64
2022/08/20 13:00:48;;;;;;;;;;;;;;;24.84;70.30;96227.19;611308;232;68498;-64